Terminal Aerodrome Forecast
Issued by NWS Charleston, WV

Home | Current Version | Previous Version | Text Only | Print | Product List | Glossary On
Versions: 1 2 3 4 5 6 7 8 9 10 11 12 13 14 15 16 17 18 19 20 21 22 23 24 25 26 27 28
000
FTUS41 KRLX 022333 CCA
TAFBKW
TAF COR
KBKW 022333Z 0300/0324 34004KT P6SM BKN009
     FM030200 VRB03KT 5SM BR OVC012
     FM030700 00000KT 3SM BR OVC003
     FM031400 12004KT 4SM BR OVC010
     FM031600 12005KT P6SM BKN010
     FM031700 12005KT P6SM VCTS BKN015CB
     FM032000 13005KT P6SM BKN030=

USA.gov is the U.S. government's official web portal to all federal, state and local government web resources and services.